sensor_id;sensor_type;location;lat;lon;timestamp;temperature;humidity
38020;DHT22;23829;51.350;17.286;2023-03-13T00:01:20;19.60;39.20
38020;DHT22;23829;51.350;17.286;2023-03-13T00:03:47;20.00;38.70
38020;DHT22;23829;51.350;17.286;2023-03-13T00:06:14;19.90;38.70
38020;DHT22;23829;51.350;17.286;2023-03-13T00:08:41;19.70;39.00
38020;DHT22;23829;51.350;17.286;2023-03-13T00:11:11;19.40;39.30
38020;DHT22;23829;51.350;17.286;2023-03-13T00:13:37;19.70;39.20
38020;DHT22;23829;51.350;17.286;2023-03-13T00:16:09;19.40;39.50
38020;DHT22;23829;51.350;17.286;2023-03-13T00:18:35;19.70;39.20
38020;DHT22;23829;51.350;17.286;2023-03-13T00:21:07;20.00;38.80
38020;DHT22;23829;51.350;17.286;2023-03-13T00:23:35;19.80;38.70
38020;DHT22;23829;51.350;17.286;2023-03-13T00:26:07;19.60;39.00
38020;DHT22;23829;51.350;17.286;2023-03-13T00:28:35;19.10;40.00
38020;DHT22;23829;51.350;17.286;2023-03-13T00:31:03;19.30;40.30
38020;DHT22;23829;51.350;17.286;2023-03-13T00:33:34;19.60;39.40
38020;DHT22;23829;51.350;17.286;2023-03-13T00:36:04;19.90;38.80
38020;DHT22;23829;51.350;17.286;2023-03-13T00:38:31;19.60;39.00
38020;DHT22;23829;51.350;17.286;2023-03-13T00:41:07;19.70;39.10
38020;DHT22;23829;51.350;17.286;2023-03-13T00:43:34;19.30;39.80
38020;DHT22;23829;51.350;17.286;2023-03-13T00:46:01;19.00;40.60
38020;DHT22;23829;51.350;17.286;2023-03-13T00:48:27;19.40;40.10
38020;DHT22;23829;51.350;17.286;2023-03-13T00:50:54;19.60;40.50
38020;DHT22;23829;51.350;17.286;2023-03-13T00:53:20;19.90;39.10
38020;DHT22;23829;51.350;17.286;2023-03-13T00:56:20;19.60;39.40
38020;DHT22;23829;51.350;17.286;2023-03-13T00:58:48;19.80;39.80
38020;DHT22;23829;51.350;17.286;2023-03-13T01:03:48;20.00;39.10
38020;DHT22;23829;51.350;17.286;2023-03-13T01:06:17;19.80;39.30
38020;DHT22;23829;51.350;17.286;2023-03-13T01:08:44;20.00;39.10
38020;DHT22;23829;51.350;17.286;2023-03-13T01:11:13;20.20;39.30
38020;DHT22;23829;51.350;17.286;2023-03-13T01:13:40;20.60;38.20
38020;DHT22;23829;51.350;17.286;2023-03-13T01:18:34;20.80;38.30
38020;DHT22;23829;51.350;17.286;2023-03-13T01:21:01;20.50;38.20
38020;DHT22;23829;51.350;17.286;2023-03-13T01:23:27;20.40;39.00
38020;DHT22;23829;51.350;17.286;2023-03-13T01:25:55;20.50;38.30
38020;DHT22;23829;51.350;17.286;2023-03-13T01:28:22;20.60;38.30
38020;DHT22;23829;51.350;17.286;2023-03-13T01:30:49;20.70;38.20
38020;DHT22;23829;51.350;17.286;2023-03-13T01:33:16;20.40;38.60
38020;DHT22;23829;51.350;17.286;2023-03-13T01:35:43;20.70;38.70
38020;DHT22;23829;51.350;17.286;2023-03-13T01:38:12;20.70;38.20
38020;DHT22;23829;51.350;17.286;2023-03-13T01:40:44;20.80;38.10
38020;DHT22;23829;51.350;17.286;2023-03-13T01:54:10;21.20;37.40
38020;DHT22;23829;51.350;17.286;2023-03-13T01:56:39;20.90;38.10
38020;DHT22;23829;51.350;17.286;2023-03-13T01:59:11;21.00;37.80
38020;DHT22;23829;51.350;17.286;2023-03-13T02:01:38;20.90;38.30
38020;DHT22;23829;51.350;17.286;2023-03-13T02:04:06;21.40;37.30
38020;DHT22;23829;51.350;17.286;2023-03-13T02:06:36;21.20;37.80
38020;DHT22;23829;51.350;17.286;2023-03-13T02:09:24;21.00;38.20
38020;DHT22;23829;51.350;17.286;2023-03-13T02:12:08;21.30;37.90
38020;DHT22;23829;51.350;17.286;2023-03-13T02:14:37;21.60;37.60
38020;DHT22;23829;51.350;17.286;2023-03-13T02:17:06;21.70;37.20
38020;DHT22;23829;51.350;17.286;2023-03-13T02:28:11;21.40;37.80
38020;DHT22;23829;51.350;17.286;2023-03-13T02:30:42;21.70;37.60
38020;DHT22;23829;51.350;17.286;2023-03-13T02:33:11;21.80;37.20
38020;DHT22;23829;51.350;17.286;2023-03-13T02:35:38;21.80;37.40
38020;DHT22;23829;51.350;17.286;2023-03-13T02:38:12;21.50;37.90
38020;DHT22;23829;51.350;17.286;2023-03-13T02:40:42;21.50;38.20
38020;DHT22;23829;51.350;17.286;2023-03-13T02:48:55;21.70;37.50
38020;DHT22;23829;51.350;17.286;2023-03-13T02:51:36;21.30;38.20
38020;DHT22;23829;51.350;17.286;2023-03-13T02:54:07;21.20;38.50
38020;DHT22;23829;51.350;17.286;2023-03-13T02:56:37;20.90;38.90
38020;DHT22;23829;51.350;17.286;2023-03-13T02:59:05;21.10;38.70
38020;DHT22;23829;51.350;17.286;2023-03-13T03:01:34;20.80;39.20
38020;DHT22;23829;51.350;17.286;2023-03-13T03:04:01;20.70;39.90
38020;DHT22;23829;51.350;17.286;2023-03-13T03:06:27;21.10;39.40
38020;DHT22;23829;51.350;17.286;2023-03-13T03:08:55;21.30;38.90
38020;DHT22;23829;51.350;17.286;2023-03-13T03:11:22;21.10;39.10
38020;DHT22;23829;51.350;17.286;2023-03-13T03:13:55;20.60;40.40
38020;DHT22;23829;51.350;17.286;2023-03-13T03:16:22;20.80;40.50
38020;DHT22;23829;51.350;17.286;2023-03-13T03:18:48;21.10;40.40
38020;DHT22;23829;51.350;17.286;2023-03-13T03:21:15;21.20;39.70
38020;DHT22;23829;51.350;17.286;2023-03-13T03:23:42;20.90;40.00
38020;DHT22;23829;51.350;17.286;2023-03-13T03:26:08;20.60;40.90
38020;DHT22;23829;51.350;17.286;2023-03-13T03:28:35;21.10;40.10
38020;DHT22;23829;51.350;17.286;2023-03-13T03:31:07;21.50;39.70
38020;DHT22;23829;51.350;17.286;2023-03-13T03:33:36;21.50;39.20
38020;DHT22;23829;51.350;17.286;2023-03-13T03:36:08;21.40;39.30
38020;DHT22;23829;51.350;17.286;2023-03-13T03:38:36;21.20;39.70
38020;DHT22;23829;51.350;17.286;2023-03-13T03:41:06;21.00;39.90
38020;DHT22;23829;51.350;17.286;2023-03-13T03:43:34;21.10;40.00
38020;DHT22;23829;51.350;17.286;2023-03-13T03:46:02;21.30;39.50
38020;DHT22;23829;51.350;17.286;2023-03-13T03:48:29;21.30;39.80
38020;DHT22;23829;51.350;17.286;2023-03-13T03:50:55;21.30;39.40
38020;DHT22;23829;51.350;17.286;2023-03-13T03:53:24;21.10;39.80
38020;DHT22;23829;51.350;17.286;2023-03-13T03:55:51;20.80;40.30
38020;DHT22;23829;51.350;17.286;2023-03-13T03:58:18;20.90;40.30
38020;DHT22;23829;51.350;17.286;2023-03-13T04:01:05;21.00;40.10
38020;DHT22;23829;51.350;17.286;2023-03-13T04:03:33;21.00;40.10
38020;DHT22;23829;51.350;17.286;2023-03-13T04:05:59;21.20;40.20
38020;DHT22;23829;51.350;17.286;2023-03-13T04:08:26;20.90;40.20
38020;DHT22;23829;51.350;17.286;2023-03-13T04:10:52;20.80;40.50
38020;DHT22;23829;51.350;17.286;2023-03-13T04:13:22;20.80;40.70
38020;DHT22;23829;51.350;17.286;2023-03-13T04:15:49;20.50;41.30
38020;DHT22;23829;51.350;17.286;2023-03-13T04:18:17;20.50;41.40
38020;DHT22;23829;51.350;17.286;2023-03-13T04:20:43;20.50;41.30
38020;DHT22;23829;51.350;17.286;2023-03-13T04:23:10;20.40;41.30
38020;DHT22;23829;51.350;17.286;2023-03-13T04:25:37;20.70;41.00
38020;DHT22;23829;51.350;17.286;2023-03-13T04:28:08;20.60;41.10
38020;DHT22;23829;51.350;17.286;2023-03-13T04:30:39;20.40;41.60
38020;DHT22;23829;51.350;17.286;2023-03-13T04:33:09;20.10;42.40
38020;DHT22;23829;51.350;17.286;2023-03-13T04:35:59;20.00;42.30
38020;DHT22;23829;51.350;17.286;2023-03-13T04:38:57;19.80;42.90
38020;DHT22;23829;51.350;17.286;2023-03-13T04:41:52;20.00;42.30
38020;DHT22;23829;51.350;17.286;2023-03-13T04:44:39;20.00;42.40
38020;DHT22;23829;51.350;17.286;2023-03-13T04:47:19;20.00;43.20
38020;DHT22;23829;51.350;17.286;2023-03-13T04:49:59;19.90;42.60
38020;DHT22;23829;51.350;17.286;2023-03-13T04:53:04;20.30;42.10
38020;DHT22;23829;51.350;17.286;2023-03-13T04:55:41;20.10;42.20
38020;DHT22;23829;51.350;17.286;2023-03-13T04:58:26;20.10;42.10
38020;DHT22;23829;51.350;17.286;2023-03-13T05:01:06;20.00;42.50
38020;DHT22;23829;51.350;17.286;2023-03-13T05:03:52;20.00;42.50
38020;DHT22;23829;51.350;17.286;2023-03-13T05:06:32;19.70;43.20
38020;DHT22;23829;51.350;17.286;2023-03-13T05:09:25;19.70;43.30
38020;DHT22;23829;51.350;17.286;2023-03-13T05:12:10;19.70;43.40
38020;DHT22;23829;51.350;17.286;2023-03-13T05:15:07;19.60;43.60
38020;DHT22;23829;51.350;17.286;2023-03-13T05:17:52;19.80;43.40
38020;DHT22;23829;51.350;17.286;2023-03-13T05:20:30;20.00;42.90
38020;DHT22;23829;51.350;17.286;2023-03-13T05:23:07;20.20;42.50
38020;DHT22;23829;51.350;17.286;2023-03-13T05:26:00;20.20;42.50
38020;DHT22;23829;51.350;17.286;2023-03-13T05:28:41;19.90;43.00
38020;DHT22;23829;51.350;17.286;2023-03-13T05:31:19;20.30;42.60
38020;DHT22;23829;51.350;17.286;2023-03-13T05:33:49;20.30;42.40
38020;DHT22;23829;51.350;17.286;2023-03-13T05:36:18;20.40;42.30
38020;DHT22;23829;51.350;17.286;2023-03-13T05:39:05;20.30;43.10
38020;DHT22;23829;51.350;17.286;2023-03-13T05:41:50;20.00;43.70
38020;DHT22;23829;51.350;17.286;2023-03-13T05:44:36;20.00;43.20
38020;DHT22;23829;51.350;17.286;2023-03-13T05:47:21;20.10;43.00
38020;DHT22;23829;51.350;17.286;2023-03-13T05:50:05;20.40;42.50
38020;DHT22;23829;51.350;17.286;2023-03-13T05:52:58;20.10;43.10
38020;DHT22;23829;51.350;17.286;2023-03-13T05:55:43;20.40;42.90
38020;DHT22;23829;51.350;17.286;2023-03-13T05:58:38;20.60;42.30
38020;DHT22;23829;51.350;17.286;2023-03-13T06:01:34;20.90;41.70
38020;DHT22;23829;51.350;17.286;2023-03-13T06:04:16;20.80;42.10
38020;DHT22;23829;51.350;17.286;2023-03-13T06:06:43;20.70;42.10
38020;DHT22;23829;51.350;17.286;2023-03-13T06:09:09;20.70;42.40
38020;DHT22;23829;51.350;17.286;2023-03-13T06:11:37;20.80;42.10
38020;DHT22;23829;51.350;17.286;2023-03-13T06:14:05;20.70;42.40
38020;DHT22;23829;51.350;17.286;2023-03-13T06:16:40;20.70;42.40
38020;DHT22;23829;51.350;17.286;2023-03-13T06:19:27;20.70;42.20
38020;DHT22;23829;51.350;17.286;2023-03-13T06:21:53;20.90;42.20
38020;DHT22;23829;51.350;17.286;2023-03-13T06:24:19;21.10;41.70
38020;DHT22;23829;51.350;17.286;2023-03-13T06:26:49;21.10;42.20
38020;DHT22;23829;51.350;17.286;2023-03-13T06:29:17;21.00;41.80
38020;DHT22;23829;51.350;17.286;2023-03-13T06:31:43;21.10;41.90
38020;DHT22;23829;51.350;17.286;2023-03-13T06:34:13;20.90;41.90
38020;DHT22;23829;51.350;17.286;2023-03-13T06:36:39;20.70;42.50
38020;DHT22;23829;51.350;17.286;2023-03-13T06:39:06;20.80;42.30
38020;DHT22;23829;51.350;17.286;2023-03-13T06:41:33;20.70;42.70
38020;DHT22;23829;51.350;17.286;2023-03-13T06:44:00;20.80;42.70
38020;DHT22;23829;51.350;17.286;2023-03-13T06:46:26;20.70;42.70
38020;DHT22;23829;51.350;17.286;2023-03-13T06:48:53;20.60;42.90
38020;DHT22;23829;51.350;17.286;2023-03-13T06:51:21;21.00;42.40
38020;DHT22;23829;51.350;17.286;2023-03-13T06:53:48;21.00;42.40
38020;DHT22;23829;51.350;17.286;2023-03-13T06:56:14;20.90;42.40
38020;DHT22;23829;51.350;17.286;2023-03-13T06:58:40;21.00;42.60
38020;DHT22;23829;51.350;17.286;2023-03-13T07:01:12;20.90;42.60
38020;DHT22;23829;51.350;17.286;2023-03-13T07:03:39;21.50;41.90
38020;DHT22;23829;51.350;17.286;2023-03-13T07:06:10;21.20;42.20
38020;DHT22;23829;51.350;17.286;2023-03-13T07:08:36;21.10;42.60
38020;DHT22;23829;51.350;17.286;2023-03-13T07:11:05;21.30;42.30
38020;DHT22;23829;51.350;17.286;2023-03-13T07:13:32;21.60;41.90
38020;DHT22;23829;51.350;17.286;2023-03-13T07:16:03;21.60;41.80
38020;DHT22;23829;51.350;17.286;2023-03-13T07:18:30;21.70;41.80
38020;DHT22;23829;51.350;17.286;2023-03-13T07:20:59;21.60;41.80
38020;DHT22;23829;51.350;17.286;2023-03-13T07:23:27;21.50;42.20
38020;DHT22;23829;51.350;17.286;2023-03-13T07:25:55;21.50;42.40
38020;DHT22;23829;51.350;17.286;2023-03-13T07:28:23;21.50;42.50
38020;DHT22;23829;51.350;17.286;2023-03-13T07:30:49;21.60;42.40
38020;DHT22;23829;51.350;17.286;2023-03-13T07:33:16;21.80;42.00
38020;DHT22;23829;51.350;17.286;2023-03-13T07:35:50;21.90;42.00
38020;DHT22;23829;51.350;17.286;2023-03-13T07:38:17;22.30;41.30
38020;DHT22;23829;51.350;17.286;2023-03-13T07:40:51;22.30;41.10
38020;DHT22;23829;51.350;17.286;2023-03-13T07:43:18;22.50;40.80
38020;DHT22;23829;51.350;17.286;2023-03-13T07:45:51;22.30;41.20
38020;DHT22;23829;51.350;17.286;2023-03-13T07:48:19;22.70;40.70
38020;DHT22;23829;51.350;17.286;2023-03-13T07:50:46;22.80;40.50
38020;DHT22;23829;51.350;17.286;2023-03-13T07:53:12;23.30;39.90
38020;DHT22;23829;51.350;17.286;2023-03-13T07:55:39;23.60;39.30
38020;DHT22;23829;51.350;17.286;2023-03-13T07:58:05;23.20;39.60
38020;DHT22;23829;51.350;17.286;2023-03-13T08:00:32;23.60;39.10
38020;DHT22;23829;51.350;17.286;2023-03-13T08:02:58;23.10;39.40
38020;DHT22;23829;51.350;17.286;2023-03-13T08:05:25;23.10;39.90
38020;DHT22;23829;51.350;17.286;2023-03-13T08:07:51;23.10;39.90
38020;DHT22;23829;51.350;17.286;2023-03-13T08:10:17;23.20;39.80
38020;DHT22;23829;51.350;17.286;2023-03-13T08:12:43;23.70;39.00
38020;DHT22;23829;51.350;17.286;2023-03-13T08:15:10;23.90;38.30
38020;DHT22;23829;51.350;17.286;2023-03-13T08:17:36;24.00;38.00
38020;DHT22;23829;51.350;17.286;2023-03-13T08:20:03;23.90;38.30
38020;DHT22;23829;51.350;17.286;2023-03-13T08:22:32;23.90;38.60
38020;DHT22;23829;51.350;17.286;2023-03-13T08:24:59;24.00;38.40
38020;DHT22;23829;51.350;17.286;2023-03-13T08:27:25;24.10;38.30
38020;DHT22;23829;51.350;17.286;2023-03-13T08:29:54;24.10;38.40
38020;DHT22;23829;51.350;17.286;2023-03-13T08:32:20;24.10;38.40
38020;DHT22;23829;51.350;17.286;2023-03-13T08:34:47;23.90;38.60
38020;DHT22;23829;51.350;17.286;2023-03-13T08:37:16;23.90;38.70
38020;DHT22;23829;51.350;17.286;2023-03-13T08:39:43;23.90;38.70
38020;DHT22;23829;51.350;17.286;2023-03-13T08:42:11;23.90;39.10
38020;DHT22;23829;51.350;17.286;2023-03-13T08:44:39;23.60;39.20
38020;DHT22;23829;51.350;17.286;2023-03-13T08:47:07;24.40;38.60
38020;DHT22;23829;51.350;17.286;2023-03-13T08:49:33;24.50;38.40
38020;DHT22;23829;51.350;17.286;2023-03-13T08:52:00;24.50;38.20
38020;DHT22;23829;51.350;17.286;2023-03-13T08:54:26;24.10;38.50
38020;DHT22;23829;51.350;17.286;2023-03-13T08:56:53;24.30;38.40
38020;DHT22;23829;51.350;17.286;2023-03-13T08:59:19;24.50;38.00
38020;DHT22;23829;51.350;17.286;2023-03-13T09:01:46;24.90;37.20
38020;DHT22;23829;51.350;17.286;2023-03-13T09:04:13;24.90;37.20
38020;DHT22;23829;51.350;17.286;2023-03-13T09:06:40;24.30;38.00
38020;DHT22;23829;51.350;17.286;2023-03-13T09:09:07;24.30;38.00
38020;DHT22;23829;51.350;17.286;2023-03-13T09:11:36;24.20;38.70
38020;DHT22;23829;51.350;17.286;2023-03-13T09:14:03;24.40;38.30
38020;DHT22;23829;51.350;17.286;2023-03-13T09:16:31;24.50;38.20
38020;DHT22;23829;51.350;17.286;2023-03-13T09:18:58;24.10;38.50
38020;DHT22;23829;51.350;17.286;2023-03-13T09:21:32;24.10;39.00
38020;DHT22;23829;51.350;17.286;2023-03-13T09:24:00;23.90;39.40
38020;DHT22;23829;51.350;17.286;2023-03-13T09:26:27;23.80;40.20
38020;DHT22;23829;51.350;17.286;2023-03-13T09:28:54;23.90;39.20
38020;DHT22;23829;51.350;17.286;2023-03-13T09:31:23;24.00;39.40
38020;DHT22;23829;51.350;17.286;2023-03-13T09:33:50;24.40;39.30
38020;DHT22;23829;51.350;17.286;2023-03-13T09:36:18;24.60;38.60
38020;DHT22;23829;51.350;17.286;2023-03-13T09:38:45;24.70;38.70
38020;DHT22;23829;51.350;17.286;2023-03-13T09:41:38;24.20;39.00
38020;DHT22;23829;51.350;17.286;2023-03-13T09:44:54;24.30;38.70
38020;DHT22;23829;51.350;17.286;2023-03-13T09:47:29;24.10;39.20
38020;DHT22;23829;51.350;17.286;2023-03-13T09:50:17;24.20;39.60
38020;DHT22;23829;51.350;17.286;2023-03-13T09:52:49;24.30;39.50
38020;DHT22;23829;51.350;17.286;2023-03-13T09:55:20;24.50;39.40
38020;DHT22;23829;51.350;17.286;2023-03-13T09:58:03;24.80;38.50
38020;DHT22;23829;51.350;17.286;2023-03-13T10:00:37;24.50;38.80
38020;DHT22;23829;51.350;17.286;2023-03-13T10:05:41;24.40;39.10
38020;DHT22;23829;51.350;17.286;2023-03-13T10:08:21;24.40;38.50
38020;DHT22;23829;51.350;17.286;2023-03-13T10:11:05;24.00;38.90
38020;DHT22;23829;51.350;17.286;2023-03-13T10:16:37;23.60;39.90
38020;DHT22;23829;51.350;17.286;2023-03-13T10:19:17;23.60;39.80
38020;DHT22;23829;51.350;17.286;2023-03-13T10:21:48;23.50;40.00
38020;DHT22;23829;51.350;17.286;2023-03-13T10:24:31;24.10;39.00
38020;DHT22;23829;51.350;17.286;2023-03-13T10:26:58;24.30;38.70
38020;DHT22;23829;51.350;17.286;2023-03-13T10:29:26;24.50;37.90
38020;DHT22;23829;51.350;17.286;2023-03-13T10:32:01;24.70;37.70
38020;DHT22;23829;51.350;17.286;2023-03-13T10:37:20;24.90;37.10
38020;DHT22;23829;51.350;17.286;2023-03-13T10:39:47;24.80;37.20
38020;DHT22;23829;51.350;17.286;2023-03-13T10:42:26;24.60;38.00
38020;DHT22;23829;51.350;17.286;2023-03-13T10:45:00;24.80;37.60
38020;DHT22;23829;51.350;17.286;2023-03-13T10:47:33;24.30;38.90
38020;DHT22;23829;51.350;17.286;2023-03-13T10:50:01;24.30;39.30
38020;DHT22;23829;51.350;17.286;2023-03-13T10:52:41;24.00;40.30
38020;DHT22;23829;51.350;17.286;2023-03-13T10:55:15;23.70;40.90
38020;DHT22;23829;51.350;17.286;2023-03-13T10:57:57;23.70;40.80
38020;DHT22;23829;51.350;17.286;2023-03-13T11:00:38;23.50;41.50
38020;DHT22;23829;51.350;17.286;2023-03-13T11:03:25;23.30;42.30
38020;DHT22;23829;51.350;17.286;2023-03-13T11:05:57;23.30;42.20
38020;DHT22;23829;51.350;17.286;2023-03-13T11:08:26;23.20;42.60
38020;DHT22;23829;51.350;17.286;2023-03-13T11:11:02;23.20;42.60
38020;DHT22;23829;51.350;17.286;2023-03-13T11:13:33;23.30;42.60
38020;DHT22;23829;51.350;17.286;2023-03-13T11:16:20;23.30;42.90
38020;DHT22;23829;51.350;17.286;2023-03-13T11:24:53;23.20;42.90
38020;DHT22;23829;51.350;17.286;2023-03-13T11:27:35;23.80;42.70
38020;DHT22;23829;51.350;17.286;2023-03-13T11:33:04;24.10;41.90
38020;DHT22;23829;51.350;17.286;2023-03-13T11:38:16;24.50;41.00
38020;DHT22;23829;51.350;17.286;2023-03-13T11:41:02;24.50;40.10
38020;DHT22;23829;51.350;17.286;2023-03-13T11:44:08;24.30;40.80
38020;DHT22;23829;51.350;17.286;2023-03-13T11:52:23;24.10;41.10
38020;DHT22;23829;51.350;17.286;2023-03-13T11:55:14;24.20;41.00
38020;DHT22;23829;51.350;17.286;2023-03-13T12:01:02;25.00;40.00
38020;DHT22;23829;51.350;17.286;2023-03-13T12:06:23;25.20;39.20
38020;DHT22;23829;51.350;17.286;2023-03-13T12:11:46;25.00;38.80
38020;DHT22;23829;51.350;17.286;2023-03-13T12:14:36;24.80;39.10
38020;DHT22;23829;51.350;17.286;2023-03-13T12:17:30;24.90;39.40
38020;DHT22;23829;51.350;17.286;2023-03-13T12:22:55;24.70;39.20
38020;DHT22;23829;51.350;17.286;2023-03-13T12:25:57;24.60;39.50
38020;DHT22;23829;51.350;17.286;2023-03-13T12:28:42;24.50;39.50
38020;DHT22;23829;51.350;17.286;2023-03-13T12:34:18;24.60;39.60
38020;DHT22;23829;51.350;17.286;2023-03-13T12:37:11;24.70;39.30
38020;DHT22;23829;51.350;17.286;2023-03-13T12:40:15;24.80;39.30
38020;DHT22;23829;51.350;17.286;2023-03-13T12:57:36;24.30;41.10
38020;DHT22;23829;51.350;17.286;2023-03-13T13:00:20;24.30;41.20
38020;DHT22;23829;51.350;17.286;2023-03-13T13:03:14;24.30;41.50
38020;DHT22;23829;51.350;17.286;2023-03-13T13:06:12;24.40;41.00
38020;DHT22;23829;51.350;17.286;2023-03-13T13:14:01;24.70;40.40
38020;DHT22;23829;51.350;17.286;2023-03-13T13:16:28;24.50;40.80
38020;DHT22;23829;51.350;17.286;2023-03-13T13:24:54;25.00;39.70
38020;DHT22;23829;51.350;17.286;2023-03-13T13:29:58;25.00;39.60
38020;DHT22;23829;51.350;17.286;2023-03-13T13:32:51;25.10;39.70
38020;DHT22;23829;51.350;17.286;2023-03-13T13:35:39;25.10;39.80
38020;DHT22;23829;51.350;17.286;2023-03-13T13:43:30;25.40;39.00
38020;DHT22;23829;51.350;17.286;2023-03-13T13:46:05;25.40;39.20
38020;DHT22;23829;51.350;17.286;2023-03-13T13:48:41;25.40;39.00
38020;DHT22;23829;51.350;17.286;2023-03-13T13:53:46;25.10;40.00
38020;DHT22;23829;51.350;17.286;2023-03-13T13:56:37;25.10;39.70
38020;DHT22;23829;51.350;17.286;2023-03-13T14:01:47;25.20;39.60
38020;DHT22;23829;51.350;17.286;2023-03-13T14:04:15;25.00;39.90
38020;DHT22;23829;51.350;17.286;2023-03-13T14:06:46;25.00;39.70
38020;DHT22;23829;51.350;17.286;2023-03-13T14:09:26;25.40;39.50
38020;DHT22;23829;51.350;17.286;2023-03-13T14:11:56;25.60;38.70
38020;DHT22;23829;51.350;17.286;2023-03-13T14:14:23;25.40;39.10
38020;DHT22;23829;51.350;17.286;2023-03-13T14:16:52;25.00;39.70
38020;DHT22;23829;51.350;17.286;2023-03-13T14:22:01;25.30;39.50
38020;DHT22;23829;51.350;17.286;2023-03-13T14:24:28;25.10;39.80
38020;DHT22;23829;51.350;17.286;2023-03-13T14:26:54;25.00;40.00
38020;DHT22;23829;51.350;17.286;2023-03-13T14:29:21;24.90;40.20
38020;DHT22;23829;51.350;17.286;2023-03-13T14:31:53;25.00;40.20
38020;DHT22;23829;51.350;17.286;2023-03-13T14:34:21;25.20;39.70
38020;DHT22;23829;51.350;17.286;2023-03-13T14:36:55;24.90;40.10
38020;DHT22;23829;51.350;17.286;2023-03-13T14:42:13;25.10;39.90
38020;DHT22;23829;51.350;17.286;2023-03-13T14:44:41;25.20;39.80
38020;DHT22;23829;51.350;17.286;2023-03-13T14:49:47;25.60;38.90
38020;DHT22;23829;51.350;17.286;2023-03-13T14:52:24;25.50;39.00
38020;DHT22;23829;51.350;17.286;2023-03-13T14:54:57;25.30;39.30
38020;DHT22;23829;51.350;17.286;2023-03-13T14:57:27;25.10;39.70
38020;DHT22;23829;51.350;17.286;2023-03-13T14:59:58;25.10;39.70
38020;DHT22;23829;51.350;17.286;2023-03-13T15:02:41;25.40;39.40
38020;DHT22;23829;51.350;17.286;2023-03-13T15:05:31;25.60;39.00
38020;DHT22;23829;51.350;17.286;2023-03-13T15:08:01;25.30;39.60
38020;DHT22;23829;51.350;17.286;2023-03-13T15:10:34;25.50;39.30
38020;DHT22;23829;51.350;17.286;2023-03-13T15:15:55;25.60;39.30
38020;DHT22;23829;51.350;17.286;2023-03-13T15:18:26;25.90;38.80
38020;DHT22;23829;51.350;17.286;2023-03-13T15:21:18;25.60;39.10
38020;DHT22;23829;51.350;17.286;2023-03-13T15:23:50;25.80;38.90
38020;DHT22;23829;51.350;17.286;2023-03-13T15:26:17;25.80;38.90
38020;DHT22;23829;51.350;17.286;2023-03-13T15:28:44;26.50;38.00
38020;DHT22;23829;51.350;17.286;2023-03-13T15:31:11;26.30;37.90
38020;DHT22;23829;51.350;17.286;2023-03-13T15:33:38;26.00;38.20
38020;DHT22;23829;51.350;17.286;2023-03-13T15:36:06;25.60;38.90
38020;DHT22;23829;51.350;17.286;2023-03-13T15:38:32;25.40;39.40
38020;DHT22;23829;51.350;17.286;2023-03-13T15:40:59;25.30;39.70
38020;DHT22;23829;51.350;17.286;2023-03-13T15:43:25;25.60;39.10
38020;DHT22;23829;51.350;17.286;2023-03-13T15:45:52;25.70;38.90
38020;DHT22;23829;51.350;17.286;2023-03-13T15:48:21;25.80;39.00
38020;DHT22;23829;51.350;17.286;2023-03-13T15:50:59;26.20;38.20
38020;DHT22;23829;51.350;17.286;2023-03-13T15:53:31;26.40;37.90
38020;DHT22;23829;51.350;17.286;2023-03-13T15:56:00;25.80;38.40
38020;DHT22;23829;51.350;17.286;2023-03-13T15:58:28;26.00;38.50
38020;DHT22;23829;51.350;17.286;2023-03-13T16:00:55;25.90;38.60
38020;DHT22;23829;51.350;17.286;2023-03-13T16:03:24;26.40;38.00
38020;DHT22;23829;51.350;17.286;2023-03-13T16:05:52;25.80;38.60
38020;DHT22;23829;51.350;17.286;2023-03-13T16:08:27;25.90;38.60
38020;DHT22;23829;51.350;17.286;2023-03-13T16:10:54;26.00;38.50
38020;DHT22;23829;51.350;17.286;2023-03-13T16:13:20;25.90;38.90
38020;DHT22;23829;51.350;17.286;2023-03-13T16:15:47;25.70;38.80
38020;DHT22;23829;51.350;17.286;2023-03-13T16:18:23;25.90;38.60
38020;DHT22;23829;51.350;17.286;2023-03-13T16:20:52;25.80;38.60
38020;DHT22;23829;51.350;17.286;2023-03-13T16:23:19;26.00;38.30
38020;DHT22;23829;51.350;17.286;2023-03-13T16:25:46;25.90;38.50
38020;DHT22;23829;51.350;17.286;2023-03-13T16:28:13;25.80;38.60
38020;DHT22;23829;51.350;17.286;2023-03-13T16:30:41;25.90;38.60
38020;DHT22;23829;51.350;17.286;2023-03-13T16:33:12;25.80;38.80
38020;DHT22;23829;51.350;17.286;2023-03-13T16:35:39;25.50;39.10
38020;DHT22;23829;51.350;17.286;2023-03-13T16:38:05;25.50;39.10
38020;DHT22;23829;51.350;17.286;2023-03-13T16:40:35;25.20;39.80
38020;DHT22;23829;51.350;17.286;2023-03-13T16:43:01;25.20;39.70
38020;DHT22;23829;51.350;17.286;2023-03-13T16:45:29;25.10;39.80
38020;DHT22;23829;51.350;17.286;2023-03-13T16:47:55;25.30;39.50
38020;DHT22;23829;51.350;17.286;2023-03-13T16:50:30;25.40;39.30
38020;DHT22;23829;51.350;17.286;2023-03-13T16:52:56;25.40;39.10
38020;DHT22;23829;51.350;17.286;2023-03-13T16:55:24;25.30;39.40
38020;DHT22;23829;51.350;17.286;2023-03-13T16:57:57;25.30;39.50
38020;DHT22;23829;51.350;17.286;2023-03-13T17:00:27;25.00;39.90
38020;DHT22;23829;51.350;17.286;2023-03-13T17:02:53;25.00;39.90
38020;DHT22;23829;51.350;17.286;2023-03-13T17:05:22;25.10;39.70
38020;DHT22;23829;51.350;17.286;2023-03-13T17:07:49;24.90;40.00
38020;DHT22;23829;51.350;17.286;2023-03-13T17:10:28;24.90;40.10
38020;DHT22;23829;51.350;17.286;2023-03-13T17:12:55;24.80;40.40
38020;DHT22;23829;51.350;17.286;2023-03-13T17:15:24;24.50;41.00
38020;DHT22;23829;51.350;17.286;2023-03-13T17:17:51;24.50;40.90
38020;DHT22;23829;51.350;17.286;2023-03-13T17:20:23;24.40;41.10
38020;DHT22;23829;51.350;17.286;2023-03-13T17:22:49;24.40;41.10
38020;DHT22;23829;51.350;17.286;2023-03-13T17:25:17;24.30;41.10
38020;DHT22;23829;51.350;17.286;2023-03-13T17:27:43;24.30;41.30
38020;DHT22;23829;51.350;17.286;2023-03-13T17:30:22;24.40;41.30
38020;DHT22;23829;51.350;17.286;2023-03-13T17:32:49;24.30;41.60
38020;DHT22;23829;51.350;17.286;2023-03-13T17:35:16;24.30;41.60
38020;DHT22;23829;51.350;17.286;2023-03-13T17:37:43;24.50;41.20
38020;DHT22;23829;51.350;17.286;2023-03-13T17:40:18;24.30;41.50
38020;DHT22;23829;51.350;17.286;2023-03-13T17:42:45;24.70;40.90
38020;DHT22;23829;51.350;17.286;2023-03-13T17:45:12;24.60;41.00
38020;DHT22;23829;51.350;17.286;2023-03-13T17:47:39;24.90;40.50